Time;durP1;ratioP1;P1;durP2;ratioP2;P2;SDS_P1;SDS_P2;PMS_P1;PMS_P2;Temp;Humidity;BMP_temperature;BMP_pressure;BME280_temperature;BME280_humidity;BME280_pressure;Samples;Min_cycle;Max_cycle;Signal;HPM_P1;HPM_P2
2021/11/14 00:00:54;;;;;;;20.07;11.33;;;;;;;1.19;100.00;101173.72;4785893;29;20055;-85
2021/11/14 00:03:22;;;;;;;21.53;10.33;;;;;;;1.14;100.00;101170.97;4812478;29;20077;-86
2021/11/14 00:05:49;;;;;;;18.67;10.53;;;;;;;1.12;100.00;101180.47;4802783;29;20039;-85
2021/11/14 00:08:17;;;;;;;25.13;11.93;;;;;;;1.17;100.00;101178.84;4787139;29;20056;-86
2021/11/14 00:10:47;;;;;;;25.57;12.37;;;;;;;1.19;100.00;101169.38;4803151;29;20053;-84
2021/11/14 00:13:15;;;;;;;23.80;12.33;;;;;;;1.16;100.00;101171.88;4800901;29;20439;-86
2021/11/14 00:15:41;;;;;;;26.33;12.03;;;;;;;1.18;100.00;101169.31;4800286;29;20046;-85
2021/11/14 00:18:08;;;;;;;23.37;12.33;;;;;;;1.18;100.00;101171.94;4802570;29;20054;-86
2021/11/14 00:20:36;;;;;;;21.87;12.07;;;;;;;1.14;100.00;101173.59;4816391;29;20416;-85
2021/11/14 00:23:03;;;;;;;23.33;13.03;;;;;;;1.03;100.00;101183.72;4803030;29;20485;-85
2021/11/14 00:25:30;;;;;;;18.80;11.43;;;;;;;0.90;100.00;101175.53;4801842;29;20188;-85
2021/11/14 00:28:02;;;;;;;24.27;12.33;;;;;;;0.92;100.00;101185.13;4807097;29;20113;-85
2021/11/14 00:30:28;;;;;;;25.40;11.90;;;;;;;0.79;100.00;101183.06;4816329;29;20055;-86
2021/11/14 00:32:55;;;;;;;22.93;11.57;;;;;;;0.73;100.00;101188.97;4788632;29;20062;-85
2021/11/14 00:35:23;;;;;;;25.13;13.33;;;;;;;0.78;100.00;101187.38;4786956;29;20043;-86
2021/11/14 00:37:50;;;;;;;26.53;11.50;;;;;;;0.73;100.00;101185.47;4799828;29;20599;-86
2021/11/14 00:40:21;;;;;;;22.40;11.40;;;;;;;0.67;100.00;101200.91;4799737;29;20713;-86
2021/11/14 00:42:49;;;;;;;20.00;10.90;;;;;;;0.69;100.00;101194.03;4817898;29;20051;-87
2021/11/14 00:45:16;;;;;;;24.10;11.30;;;;;;;0.71;100.00;101201.03;4801795;29;20046;-86
2021/11/14 00:47:43;;;;;;;21.47;11.97;;;;;;;0.69;100.00;101196.66;4787665;29;20047;-86
2021/11/14 00:50:11;;;;;;;23.17;11.43;;;;;;;0.64;100.00;101208.63;4836939;29;20129;-87
2021/11/14 00:52:43;;;;;;;21.70;12.17;;;;;;;0.63;100.00;101204.25;4802149;29;20073;-86
2021/11/14 00:55:14;;;;;;;22.43;10.77;;;;;;;0.58;100.00;101219.72;4792954;29;20043;-86
2021/11/14 00:57:41;;;;;;;23.50;12.50;;;;;;;0.61;100.00;101216.34;4801068;29;20067;-87
2021/11/14 01:00:18;;;;;;;22.13;12.50;;;;;;;0.69;100.00;101215.72;4801962;29;20046;-86
2021/11/14 01:02:45;;;;;;;25.13;12.73;;;;;;;0.69;100.00;101217.44;4832553;29;20043;-87
2021/11/14 01:05:14;;;;;;;22.83;12.47;;;;;;;0.62;100.00;101220.72;4786333;29;20042;-86
2021/11/14 01:07:41;;;;;;;26.80;11.80;;;;;;;0.53;100.00;101234.31;4817687;29;20046;-86
2021/11/14 01:10:09;;;;;;;20.73;11.33;;;;;;;0.47;100.00;101234.13;4816684;29;20050;-87
2021/11/14 01:12:36;;;;;;;21.47;11.90;;;;;;;0.49;100.00;101232.47;4788123;29;20074;-86
2021/11/14 01:15:05;;;;;;;21.57;10.97;;;;;;;0.46;100.00;101242.78;4801768;29;20417;-85
2021/11/14 01:17:32;;;;;;;17.83;9.70;;;;;;;0.41;100.00;101239.16;4799198;29;20095;-87
2021/11/14 01:19:59;;;;;;;20.90;11.73;;;;;;;0.39;100.00;101244.31;4796153;29;20051;-87
2021/11/14 01:22:26;;;;;;;22.87;12.17;;;;;;;0.41;100.00;101245.22;4825035;29;20501;-87
2021/11/14 01:24:52;;;;;;;26.50;12.10;;;;;;;0.45;100.00;101244.50;4815505;29;20482;-86
2021/11/14 01:27:21;;;;;;;22.80;11.97;;;;;;;0.51;100.00;101249.88;4786784;29;20050;-87
2021/11/14 01:29:47;;;;;;;19.47;9.87;;;;;;;0.49;100.00;101248.06;4816421;29;20053;-86
2021/11/14 01:32:14;;;;;;;23.07;12.17;;;;;;;0.47;100.00;101249.72;4802122;29;20054;-86
2021/11/14 01:34:41;;;;;;;21.10;12.50;;;;;;;0.50;100.00;101255.00;4786331;29;20134;-87
2021/11/14 01:37:07;;;;;;;24.13;12.70;;;;;;;0.40;100.00;101261.66;4784169;29;20055;-86
2021/11/14 01:39:34;;;;;;;26.50;11.20;;;;;;;0.36;100.00;101264.13;4846285;29;20515;-86
2021/11/14 01:42:01;;;;;;;24.60;14.70;;;;;;;0.37;100.00;101253.78;4863582;29;20072;-85
2021/11/14 01:44:28;;;;;;;24.20;12.07;;;;;;;0.39;100.00;101253.81;4813433;29;20058;-86
2021/11/14 01:46:55;;;;;;;25.33;11.77;;;;;;;0.40;100.00;101253.84;4787175;29;20122;-87
2021/11/14 01:49:21;;;;;;;27.20;11.83;;;;;;;0.39;100.00;101261.63;4800919;29;20050;-89
2021/11/14 01:51:55;;;;;;;23.23;12.93;;;;;;;0.40;100.00;101253.84;4787381;29;20046;-86
2021/11/14 01:54:22;;;;;;;22.63;12.00;;;;;;;0.38;100.00;101267.66;4805046;29;20077;-85
2021/11/14 01:56:49;;;;;;;24.63;12.30;;;;;;;0.35;100.00;101258.06;4948807;23;20039;-81
2021/11/14 01:59:16;;;;;;;29.53;15.23;;;;;;;0.38;100.00;101262.47;4954412;28;20450;-81
2021/11/14 02:01:43;;;;;;;24.20;12.63;;;;;;;0.34;100.00;101266.69;4952598;28;20492;-82
2021/11/14 02:04:11;;;;;;;25.17;13.27;;;;;;;0.34;100.00;101255.38;4954392;28;20101;-83
2021/11/14 02:06:46;;;;;;;28.53;14.27;;;;;;;0.37;100.00;101265.91;4941697;29;20400;-81
2021/11/14 02:09:13;;;;;;;28.73;14.97;;;;;;;0.43;100.00;101264.38;4946211;29;20043;-82
2021/11/14 02:11:40;;;;;;;29.87;14.47;;;;;;;0.36;100.00;101265.00;4954390;28;20049;-83
2021/11/14 02:14:07;;;;;;;30.70;14.50;;;;;;;0.35;100.00;101271.06;4951105;29;20043;-83
2021/11/14 02:16:33;;;;;;;28.67;13.90;;;;;;;0.26;100.00;101268.19;4966172;28;20043;-83
2021/11/14 02:19:00;;;;;;;29.30;13.63;;;;;;;0.30;100.00;101279.53;4948020;29;20043;-82
2021/11/14 02:21:27;;;;;;;32.60;15.70;;;;;;;0.37;100.00;101281.50;4949499;29;20047;-82
2021/11/14 02:23:54;;;;;;;24.70;12.90;;;;;;;0.28;100.00;101292.47;4946022;29;20043;-82
2021/11/14 02:26:23;;;;;;;26.17;12.70;;;;;;;0.30;100.00;101296.00;4956891;29;20047;-82
2021/11/14 02:28:52;;;;;;;31.17;15.50;;;;;;;0.35;100.00;101297.03;4943804;29;20039;-81
2021/11/14 02:31:20;;;;;;;25.60;13.40;;;;;;;0.44;100.00;101293.84;4944028;29;20043;-82
2021/11/14 02:33:46;;;;;;;31.53;16.03;;;;;;;0.46;100.00;101286.97;4951237;29;20131;-83
2021/11/14 02:36:13;;;;;;;24.63;13.87;;;;;;;0.48;100.00;101295.69;4930146;29;20176;-82
2021/11/14 02:38:41;;;;;;;27.00;14.13;;;;;;;0.46;100.00;101306.03;4958157;28;20056;-82
2021/11/14 02:41:08;;;;;;;26.10;13.93;;;;;;;0.40;100.00;101308.44;4929336;29;20048;-81
2021/11/14 02:43:36;;;;;;;32.83;15.33;;;;;;;0.33;100.00;101311.69;4958240;29;20061;-83
2021/11/14 02:46:04;;;;;;;31.03;14.23;;;;;;;0.38;100.00;101315.31;4962747;29;20031;-82
2021/11/14 02:48:32;;;;;;;29.30;14.10;;;;;;;0.43;100.00;101318.06;4959881;28;20083;-82
2021/11/14 02:51:00;;;;;;;26.73;14.83;;;;;;;0.38;100.00;101320.53;4945485;29;20047;-82
2021/11/14 02:53:27;;;;;;;34.30;14.57;;;;;;;0.34;100.00;101317.75;4955512;28;20056;-82
2021/11/14 02:55:54;;;;;;;27.90;15.87;;;;;;;0.32;100.00;101309.91;4958815;29;20604;-81
2021/11/14 02:58:21;;;;;;;32.33;15.03;;;;;;;0.30;100.00;101318.50;4952407;29;20448;-83
2021/11/14 03:00:54;;;;;;;29.33;14.20;;;;;;;0.30;100.00;101323.72;4955382;28;20413;-82
2021/11/14 03:03:23;;;;;;;31.90;15.80;;;;;;;0.26;100.00;101330.53;4938022;28;20501;-82
2021/11/14 03:05:49;;;;;;;30.03;13.33;;;;;;;0.29;100.00;101322.81;4971227;28;20047;-83
2021/11/14 03:08:16;;;;;;;27.53;13.53;;;;;;;0.26;100.00;101315.84;4938163;29;20086;-81
2021/11/14 03:10:43;;;;;;;32.03;14.97;;;;;;;0.35;100.00;101316.97;4954926;28;20456;-82
2021/11/14 03:13:12;;;;;;;31.03;14.83;;;;;;;0.33;100.00;101322.06;4941428;29;20048;-82
2021/11/14 03:15:44;;;;;;;28.60;14.73;;;;;;;0.40;100.00;101328.34;4954158;28;20113;-81
2021/11/14 03:18:11;;;;;;;28.37;14.10;;;;;;;0.41;100.00;101330.13;4950560;29;20043;-82
2021/11/14 03:20:40;;;;;;;33.27;15.83;;;;;;;0.40;100.00;101329.25;4937222;29;20054;-81
2021/11/14 03:23:06;;;;;;;35.60;15.17;;;;;;;0.42;100.00;101335.38;4937785;29;20117;-82
2021/11/14 03:25:34;;;;;;;29.17;14.47;;;;;;;0.40;100.00;101341.34;4950289;28;20048;-82
2021/11/14 03:28:01;;;;;;;31.07;14.30;;;;;;;0.35;100.00;101333.44;4949954;29;20070;-83
2021/11/14 03:30:29;;;;;;;33.63;15.43;;;;;;;0.43;100.00;101342.34;4935341;29;20053;-82
2021/11/14 03:32:55;;;;;;;28.53;13.73;;;;;;;0.50;100.00;101346.88;4937898;29;20043;-82
2021/11/14 03:35:22;;;;;;;29.27;15.27;;;;;;;0.53;100.00;101340.91;4951642;28;20660;-82
2021/11/14 03:37:49;;;;;;;30.17;14.27;;;;;;;0.57;100.00;101341.03;4937613;28;20039;-82
2021/11/14 03:40:18;;;;;;;32.20;15.93;;;;;;;0.60;100.00;101342.88;4936932;29;20047;-82
2021/11/14 03:42:46;;;;;;;31.20;15.33;;;;;;;0.63;100.00;101344.69;4953706;28;20043;-82
2021/11/14 03:45:13;;;;;;;31.83;16.13;;;;;;;0.73;100.00;101349.31;4937405;28;20567;-82
2021/11/14 03:47:40;;;;;;;29.53;14.20;;;;;;;0.70;100.00;101344.91;4952933;29;20453;-81
2021/11/14 03:50:09;;;;;;;34.53;14.97;;;;;;;0.73;100.00;101349.31;4949816;28;20043;-81
2021/11/14 03:52:39;;;;;;;31.80;16.07;;;;;;;0.79;100.00;101347.78;4954133;29;20098;-82
2021/11/14 03:55:08;;;;;;;33.53;16.33;;;;;;;0.86;100.00;101353.19;4936899;28;20035;-81
2021/11/14 03:57:34;;;;;;;33.10;16.73;;;;;;;0.87;100.00;101347.16;4953020;28;20046;-81
2021/11/14 04:00:04;;;;;;;34.47;16.97;;;;;;;0.97;100.00;101354.38;4950966;28;20487;-81
2021/11/14 04:02:30;;;;;;;33.23;15.93;;;;;;;1.07;100.00;101351.19;4938464;29;20086;-81
2021/11/14 04:04:57;;;;;;;29.23;14.70;;;;;;;1.07;100.00;101351.19;4937599;29;20078;-83
2021/11/14 04:07:24;;;;;;;29.37;14.40;;;;;;;1.03;100.00;101351.97;4971219;28;20401;-84
2021/11/14 04:09:50;;;;;;;31.50;14.37;;;;;;;1.02;100.00;101358.00;4936646;29;20531;-82
2021/11/14 04:12:17;;;;;;;26.50;14.00;;;;;;;1.05;100.00;101358.09;4920960;29;20127;-82
2021/11/14 04:14:44;;;;;;;25.80;13.97;;;;;;;1.11;100.00;101353.94;4942383;28;20039;-82
2021/11/14 04:17:12;;;;;;;29.47;14.93;;;;;;;1.16;100.00;101355.78;4952472;28;20136;-82
2021/11/14 04:19:38;;;;;;;24.90;13.30;;;;;;;1.20;100.00;101362.84;4952604;28;20047;-82
2021/11/14 04:22:05;;;;;;;25.40;13.43;;;;;;;1.17;100.00;101363.63;4953507;28;20059;-82
2021/11/14 04:24:32;;;;;;;28.47;13.83;;;;;;;1.15;100.00;101367.91;4937386;29;20051;-82
2021/11/14 04:26:58;;;;;;;27.93;13.97;;;;;;;1.22;100.00;101371.59;4937451;28;20114;-82
2021/11/14 04:29:25;;;;;;;29.23;13.97;;;;;;;1.30;100.00;101368.38;4937747;29;20048;-82
2021/11/14 04:31:53;;;;;;;28.30;13.40;;;;;;;1.31;100.00;101374.44;4955252;28;20051;-82
2021/11/14 04:34:19;;;;;;;26.73;14.33;;;;;;;1.24;100.00;101372.50;4931062;29;20044;-82
2021/11/14 04:36:46;;;;;;;27.57;14.30;;;;;;;1.36;100.00;101368.53;4950423;28;20089;-83
2021/11/14 04:39:13;;;;;;;27.77;14.77;;;;;;;1.37;100.00;101372.91;4937252;29;20102;-83
2021/11/14 04:41:40;;;;;;;25.13;14.20;;;;;;;1.29;100.00;101378.75;4922938;29;20047;-81
2021/11/14 04:44:06;;;;;;;30.10;14.83;;;;;;;1.40;100.00;101375.59;4953192;28;20051;-81
2021/11/14 04:46:33;;;;;;;32.17;15.37;;;;;;;1.34;100.00;101382.34;4953924;28;20515;-86
2021/11/14 04:48:59;;;;;;;27.77;13.83;;;;;;;1.43;100.00;101380.03;4937563;29;20492;-83
2021/11/14 04:51:26;;;;;;;27.97;14.57;;;;;;;1.48;100.00;101394.03;4955619;28;20412;-83
2021/11/14 04:53:53;;;;;;;24.67;13.10;;;;;;;1.43;100.00;101390.44;4937224;29;20058;-83
2021/11/14 04:56:20;;;;;;;29.20;14.53;;;;;;;1.44;100.00;101394.81;4954039;28;20062;-84
2021/11/14 04:58:47;;;;;;;26.87;15.20;;;;;;;1.52;100.00;101392.41;4937376;29;20046;-82
2021/11/14 05:01:13;;;;;;;24.80;13.70;;;;;;;1.47;100.00;101396.59;4923578;29;20054;-84
2021/11/14 05:03:40;;;;;;;29.67;14.37;;;;;;;1.53;100.00;101409.78;4970791;28;20057;-82
2021/11/14 05:06:10;;;;;;;27.30;14.33;;;;;;;1.55;100.00;101416.81;4940281;29;20059;-81
2021/11/14 05:08:37;;;;;;;26.77;13.50;;;;;;;1.57;100.00;101412.50;4954665;28;20035;-81
2021/11/14 05:11:04;;;;;;;27.53;14.63;;;;;;;1.66;100.00;101420.59;4941212;29;20043;-81
2021/11/14 05:13:31;;;;;;;25.93;15.37;;;;;;;1.68;100.00;101416.31;4953633;28;20047;-82
2021/11/14 05:15:57;;;;;;;26.07;13.77;;;;;;;1.70;100.00;101421.56;4955934;28;20047;-82
2021/11/14 05:18:24;;;;;;;28.00;14.17;;;;;;;1.74;100.00;101422.53;4937321;29;20081;-82
2021/11/14 05:20:51;;;;;;;28.03;14.77;;;;;;;1.66;100.00;101424.91;4937302;29;20608;-82
2021/11/14 05:23:18;;;;;;;27.10;13.23;;;;;;;1.68;100.00;101436.25;4939592;29;20051;-81
2021/11/14 05:25:45;;;;;;;27.87;13.23;;;;;;;1.74;100.00;101432.94;4942118;29;20043;-81
2021/11/14 05:28:12;;;;;;;24.47;12.83;;;;;;;1.68;100.00;101439.75;4958992;28;20413;-81
2021/11/14 05:30:39;;;;;;;26.10;13.87;;;;;;;1.87;100.00;101450.69;4958670;28;20043;-81
2021/11/14 05:33:06;;;;;;;23.30;13.77;;;;;;;1.89;100.00;101452.47;4943335;29;20039;-81
2021/11/14 05:35:32;;;;;;;30.53;15.57;;;;;;;1.88;100.00;101461.16;4958255;28;20420;-82
2021/11/14 05:37:59;;;;;;;21.93;12.60;;;;;;;1.87;100.00;101466.31;4959580;29;20051;-81
2021/11/14 05:40:26;;;;;;;23.80;12.73;;;;;;;1.87;100.00;101472.41;4957939;28;20050;-82
2021/11/14 05:42:55;;;;;;;27.07;14.40;;;;;;;2.00;100.00;101470.13;4938596;28;20047;-82
2021/11/14 05:45:21;;;;;;;24.73;13.10;;;;;;;1.95;100.00;101473.50;4954868;29;20075;-82
2021/11/14 05:47:48;;;;;;;27.57;13.43;;;;;;;1.98;100.00;101486.59;4969408;29;20035;-82
2021/11/14 05:50:15;;;;;;;25.43;13.77;;;;;;;1.98;100.00;101485.72;4966022;28;20051;-81
2021/11/14 05:52:41;;;;;;;25.60;13.63;;;;;;;1.99;100.00;101487.50;4969911;28;20054;-82
2021/11/14 05:55:09;;;;;;;26.87;14.13;;;;;;;2.04;100.00;101495.44;4951701;29;20039;-82
2021/11/14 05:57:49;;;;;;;27.80;15.03;;;;;;;2.07;100.00;101498.13;4956998;28;20035;-83
2021/11/14 06:00:31;;;;;;;24.93;13.27;;;;;;;2.13;100.00;101503.53;4966703;28;20476;-82
2021/11/14 06:05:45;;;;;;;29.57;14.90;;;;;;;2.17;100.00;101515.78;4968645;28;21958;-82
2021/11/14 06:08:12;;;;;;;25.07;13.30;;;;;;;2.15;100.00;101517.47;4948405;29;20050;-82
2021/11/14 06:10:38;;;;;;;28.67;13.43;;;;;;;2.16;100.00;101521.84;4963897;29;20043;-82
2021/11/14 06:13:05;;;;;;;23.50;13.43;;;;;;;2.21;100.00;101525.47;4962739;28;20146;-82
2021/11/14 06:15:32;;;;;;;24.83;13.03;;;;;;;2.22;100.00;101529.84;4945446;29;20039;-81
2021/11/14 06:17:59;;;;;;;26.43;14.17;;;;;;;2.22;100.00;101535.03;4944882;29;20055;-81
2021/11/14 06:20:25;;;;;;;24.57;14.37;;;;;;;2.23;100.00;101542.91;4943545;29;20726;-81
2021/11/14 06:22:52;;;;;;;25.97;13.20;;;;;;;2.28;100.00;101547.38;4939931;29;20056;-82
2021/11/14 06:25:19;;;;;;;29.70;14.43;;;;;;;2.35;100.00;101554.50;4957887;28;20043;-82
2021/11/14 06:27:45;;;;;;;25.40;13.43;;;;;;;2.33;100.00;101559.69;4931857;29;20077;-81
2021/11/14 06:30:14;;;;;;;25.77;14.37;;;;;;;2.39;100.00;101566.81;4939629;29;20389;-82
2021/11/14 06:32:41;;;;;;;26.33;13.67;;;;;;;2.50;100.00;101565.34;4942566;28;20500;-82
2021/11/14 06:35:09;;;;;;;26.03;14.30;;;;;;;2.44;100.00;101573.03;4939313;29;20047;-82
2021/11/14 06:37:36;;;;;;;26.70;13.80;;;;;;;2.47;100.00;101571.38;4947425;28;20043;-82
2021/11/14 06:40:05;;;;;;;28.67;15.00;;;;;;;2.55;100.00;101576.81;4960483;28;20050;-82
2021/11/14 06:42:32;;;;;;;26.07;13.77;;;;;;;2.58;100.00;101582.09;4940114;29;20047;-84
2021/11/14 06:44:58;;;;;;;24.97;13.77;;;;;;;2.54;100.00;101585.47;4940769;29;20509;-82
2021/11/14 06:47:25;;;;;;;25.97;14.23;;;;;;;2.51;100.00;101582.75;4941154;29;20043;-82
2021/11/14 06:49:52;;;;;;;24.87;14.60;;;;;;;2.57;100.00;101585.53;4956634;28;20382;-83
2021/11/14 06:52:19;;;;;;;25.20;12.57;;;;;;;2.54;100.00;101585.47;4941132;29;20047;-82
2021/11/14 06:54:46;;;;;;;26.77;12.57;;;;;;;2.56;100.00;101601.16;4939902;29;20054;-83
2021/11/14 06:57:18;;;;;;;27.47;13.23;;;;;;;2.62;100.00;101603.94;4953672;29;20035;-81
2021/11/14 06:59:46;;;;;;;23.00;13.60;;;;;;;2.63;100.00;101608.31;4940275;28;20049;-81
2021/11/14 07:02:13;;;;;;;27.30;14.30;;;;;;;2.66;100.00;101614.50;4957296;28;20483;-81
2021/11/14 07:04:40;;;;;;;22.83;12.90;;;;;;;2.66;100.00;101618.81;4957542;28;20043;-81
2021/11/14 07:07:07;;;;;;;23.83;12.63;;;;;;;2.68;100.00;101618.00;4957459;28;20098;-82
2021/11/14 07:09:34;;;;;;;24.23;12.67;;;;;;;2.68;100.00;101618.00;4939887;29;20070;-81
2021/11/14 07:12:01;;;;;;;23.67;12.83;;;;;;;2.71;100.00;101619.84;4943154;29;20054;-82
2021/11/14 07:14:28;;;;;;;23.80;13.00;;;;;;;2.74;100.00;101619.91;4943627;29;20047;-82
2021/11/14 07:16:55;;;;;;;24.50;13.40;;;;;;;2.74;100.00;101619.91;4957025;28;20563;-81
2021/11/14 07:19:23;;;;;;;24.77;14.50;;;;;;;2.80;100.00;101620.09;4940586;29;20512;-83
2021/11/14 07:21:50;;;;;;;24.13;13.30;;;;;;;2.82;100.00;101627.09;4954722;28;20489;-81
2021/11/14 07:24:17;;;;;;;25.80;14.40;;;;;;;2.84;100.00;101621.91;4948224;28;20055;-82
2021/11/14 07:26:44;;;;;;;23.50;12.97;;;;;;;2.85;100.00;101622.78;4939097;29;20050;-82
2021/11/14 07:29:11;;;;;;;23.37;13.87;;;;;;;2.90;100.00;101627.31;4947145;28;20035;-82
2021/11/14 07:31:37;;;;;;;27.83;13.67;;;;;;;2.96;100.00;101623.97;4941285;28;20047;-81
2021/11/14 07:34:04;;;;;;;23.10;12.70;;;;;;;2.99;100.00;101621.44;4959241;28;20054;-81
2021/11/14 07:36:31;;;;;;;22.83;12.50;;;;;;;3.04;100.00;101630.28;4957650;28;20058;-82
2021/11/14 07:38:57;;;;;;;23.93;13.10;;;;;;;3.08;100.00;101621.66;4943023;29;20102;-81
2021/11/14 07:41:24;;;;;;;25.97;14.77;;;;;;;3.10;100.00;101628.69;4956224;28;20103;-81
2021/11/14 07:43:51;;;;;;;24.87;14.27;;;;;;;3.14;100.00;101621.84;4937769;29;20046;-82
2021/11/14 07:46:18;;;;;;;23.87;12.80;;;;;;;3.21;100.00;101623.75;4956024;28;20051;-82
2021/11/14 07:48:45;;;;;;;26.63;14.63;;;;;;;3.32;100.00;101626.63;4942393;28;20043;-82
2021/11/14 07:51:12;;;;;;;24.03;15.57;;;;;;;3.35;100.00;101630.19;4946369;28;20065;-82
2021/11/14 07:53:38;;;;;;;25.70;13.30;;;;;;;3.42;100.00;101633.84;4935343;29;20047;-82
2021/11/14 07:56:06;;;;;;;27.67;15.10;;;;;;;3.47;100.00;101632.22;4936471;29;20082;-81
2021/11/14 07:58:34;;;;;;;26.87;15.47;;;;;;;3.51;100.00;101630.56;4947617;28;20497;-82
2021/11/14 08:01:04;;;;;;;27.57;15.23;;;;;;;3.61;100.00;101641.25;4934589;29;20078;-82
2021/11/14 08:03:33;;;;;;;29.87;15.80;;;;;;;3.62;100.00;101644.78;5006088;23;20128;-84
2021/11/14 08:06:02;;;;;;;34.50;18.03;;;;;;;3.64;100.00;101648.31;4892911;29;20091;-84
2021/11/14 08:08:29;;;;;;;27.60;16.00;;;;;;;3.70;100.00;101642.31;4898302;29;20047;-84
2021/11/14 08:10:56;;;;;;;30.63;15.17;;;;;;;3.72;100.00;101653.72;4911764;29;20052;-84
2021/11/14 08:13:23;;;;;;;34.13;16.73;;;;;;;3.81;100.00;101654.81;4918537;29;20043;-84
2021/11/14 08:15:50;;;;;;;37.20;18.07;;;;;;;3.85;100.00;101659.25;4919692;29;20103;-85
2021/11/14 08:18:17;;;;;;;27.47;15.07;;;;;;;3.89;100.00;101652.38;4889641;29;20222;-84
2021/11/14 08:20:45;;;;;;;32.87;17.03;;;;;;;3.91;100.00;101651.53;4934637;29;20043;-85
2021/11/14 08:23:14;;;;;;;31.23;16.73;;;;;;;3.97;100.00;101657.78;4918169;29;20139;-85
2021/11/14 08:25:42;;;;;;;31.40;16.73;;;;;;;4.00;100.00;101665.66;4924668;29;20071;-84
2021/11/14 08:28:10;;;;;;;33.80;17.30;;;;;;;4.16;100.00;101662.53;4901281;29;20038;-85
2021/11/14 08:30:37;;;;;;;30.50;16.40;;;;;;;4.16;100.00;101670.41;4908400;29;20048;-85
2021/11/14 08:33:04;;;;;;;34.13;17.13;;;;;;;4.21;100.00;101679.22;4906370;28;20523;-85
2021/11/14 08:35:31;;;;;;;31.90;16.77;;;;;;;4.28;100.00;101677.59;4917793;29;20067;-85
2021/11/14 08:37:58;;;;;;;33.73;17.97;;;;;;;4.34;100.00;101683.88;4902322;29;20044;-86
2021/11/14 08:40:28;;;;;;;35.43;18.60;;;;;;;4.39;100.00;101687.47;4900687;29;20059;-84
2021/11/14 08:42:56;;;;;;;41.37;20.73;;;;;;;4.48;100.00;101689.41;4899760;29;20052;-86
2021/11/14 08:45:24;;;;;;;39.23;20.47;;;;;;;4.58;100.00;101696.56;4896352;29;20043;-85
2021/11/14 08:47:50;;;;;;;34.00;17.47;;;;;;;4.63;100.00;101704.53;4920202;29;20047;-87
2021/11/14 08:50:17;;;;;;;34.03;18.83;;;;;;;4.67;100.00;101701.13;4916782;29;20040;-84
2021/11/14 08:52:45;;;;;;;33.80;17.90;;;;;;;4.66;100.00;101712.44;4932275;29;20060;-85
2021/11/14 08:55:15;;;;;;;32.90;18.63;;;;;;;4.70;100.00;101709.03;4916677;29;20048;-85
2021/11/14 08:57:43;;;;;;;44.60;22.97;;;;;;;4.76;100.00;101712.66;4901634;29;20043;-86
2021/11/14 09:00:11;;;;;;;43.17;22.37;;;;;;;4.83;100.00;101720.63;4900601;29;20043;-85
2021/11/14 09:02:38;;;;;;;46.47;21.60;;;;;;;4.83;100.00;101716.28;4917092;29;20118;-86
2021/11/14 09:05:06;;;;;;;46.07;21.20;;;;;;;4.88;100.00;101726.84;4916540;29;20114;-85
2021/11/14 09:07:33;;;;;;;44.63;22.83;;;;;;;4.93;100.00;101726.06;4900708;29;20052;-85
2021/11/14 09:10:00;;;;;;;42.33;23.70;;;;;;;5.00;100.00;101724.47;4939435;28;20052;-85
2021/11/14 09:12:27;;;;;;;50.40;26.50;;;;;;;5.09;100.00;101727.25;4927759;29;20040;-85
2021/11/14 09:14:56;;;;;;;52.03;25.20;;;;;;;5.14;100.00;101735.22;4902045;29;20391;-86
2021/11/14 09:17:26;;;;;;;58.07;28.77;;;;;;;5.17;100.00;101735.25;4915318;29;20114;-86
2021/11/14 09:19:53;;;;;;;54.20;26.40;;;;;;;5.20;100.00;101740.56;4896453;29;20040;-85
2021/11/14 09:22:20;;;;;;;67.60;32.10;;;;;;;5.39;100.00;101742.69;4914908;29;20127;-86
2021/11/14 09:24:47;;;;;;;80.17;35.87;;;;;;;5.36;100.00;101751.34;4927162;29;20051;-86
2021/11/14 09:27:14;;;;;;;67.53;31.73;;;;;;;5.40;100.00;101748.78;4901296;29;20481;-87
2021/11/14 09:29:40;;;;;;;72.67;34.83;;;;;;;5.45;100.00;101758.47;4914762;29;20441;-86
2021/11/14 09:32:08;;;;;;;66.93;30.90;;;;;;;5.48;100.00;101755.06;4907254;29;20043;-86
2021/11/14 09:34:35;;;;;;;65.67;31.17;;;;;;;5.53;100.00;101761.25;4918511;29;20055;-84
2021/11/14 09:37:02;;;;;;;74.27;36.23;;;;;;;5.50;100.00;101758.59;4917473;29;20044;-84
2021/11/14 09:39:30;;;;;;;73.87;35.57;;;;;;;5.60;100.00;101766.63;4918016;29;20117;-85
2021/11/14 09:41:58;;;;;;;73.77;34.37;;;;;;;5.86;100.00;101753.94;4899909;29;20064;-85
2021/11/14 09:44:25;;;;;;;70.03;33.30;;;;;;;5.84;100.00;101752.16;4924806;29;20043;-86
2021/11/14 09:46:55;;;;;;;80.47;35.20;;;;;;;5.98;100.00;101758.56;4916926;29;20051;-85
2021/11/14 09:49:25;;;;;;;79.80;37.03;;;;;;;5.90;100.00;101747.94;4918810;29;20036;-85
2021/11/14 09:51:55;;;;;;;72.67;34.40;;;;;;;5.93;100.00;101754.97;4902251;29;20552;-85
2021/11/14 09:54:27;;;;;;;68.60;34.07;;;;;;;5.97;100.00;101756.81;4898101;29;20195;-86
2021/11/14 09:56:55;;;;;;;72.73;35.97;;;;;;;6.07;100.00;101752.56;4904606;29;20058;-86
2021/11/14 09:59:22;;;;;;;81.60;35.40;;;;;;;6.22;100.00;101760.66;4906022;29;20043;-84
2021/11/14 10:01:50;;;;;;;77.57;35.57;;;;;;;6.21;100.00;101759.78;4902025;29;20047;-85
2021/11/14 10:04:18;;;;;;;69.80;34.23;;;;;;;6.11;100.00;101759.63;4931812;29;20549;-85
2021/11/14 10:07:08;;;;;;;79.50;34.67;;;;;;;6.13;100.00;101758.78;4915438;29;20647;-85
2021/11/14 10:09:38;;;;;;;80.73;37.87;;;;;;;6.29;100.00;101761.63;4914534;29;20048;-84
2021/11/14 10:12:20;;;;;;;81.80;35.83;;;;;;;6.33;100.00;101768.72;4917411;29;20564;-84
2021/11/14 10:14:49;;;;;;;72.10;35.37;;;;;;;6.25;100.00;101775.59;4918018;29;20051;-84
2021/11/14 14:30:27;;;;;;;80.07;31.70;;;;;;;5.43;100.00;101971.59;5090491;27;20369;-79
2021/11/14 14:33:15;;;;;;;75.90;32.33;;;;;;;5.51;100.00;101973.53;5091167;28;20051;-81
2021/11/14 14:35:45;;;;;;;80.97;32.70;;;;;;;5.58;100.00;101977.19;5067302;28;20080;-81
2021/11/14 14:38:18;;;;;;;72.47;32.23;;;;;;;5.59;100.00;101974.59;5032662;28;20040;-81
2021/11/14 14:40:54;;;;;;;76.60;33.35;;;;;;;5.76;100.00;101968.81;5054201;28;20041;-81
2021/11/14 14:43:29;;;;;;;71.93;33.17;;;;;;;5.71;100.00;101976.56;5053271;28;20049;-81
2021/11/14 14:45:57;;;;;;;69.13;31.80;;;;;;;5.77;100.00;101981.06;5067625;28;20033;-82
2021/11/14 14:48:33;;;;;;;69.80;33.97;;;;;;;5.70;100.00;101977.41;5048065;28;20033;-82
2021/11/14 14:51:03;;;;;;;71.40;30.73;;;;;;;5.66;100.00;101986.09;5043893;28;20036;-81
2021/11/14 14:53:33;;;;;;;76.83;31.93;;;;;;;5.73;100.00;101981.88;5034242;28;20478;-82
2021/11/14 14:56:29;;;;;;;70.37;31.93;;;;;;;5.81;100.00;101988.16;5074211;28;20043;-81
2021/11/14 14:58:57;;;;;;;77.27;33.13;;;;;;;5.78;100.00;101996.81;5043632;28;20168;-81
2021/11/14 15:01:33;;;;;;;70.60;31.10;;;;;;;5.80;100.00;102003.00;5051485;28;20046;-80
2021/11/14 15:04:18;;;;;;;66.00;29.83;;;;;;;5.78;100.00;102014.28;5071003;28;20052;-80
2021/11/14 15:06:54;;;;;;;73.30;30.20;;;;;;;5.79;100.00;102011.69;5033197;28;20056;-85
2021/11/14 15:09:22;;;;;;;71.50;30.63;;;;;;;5.83;100.00;102016.16;5023251;28;20041;-86
2021/11/14 15:12:12;;;;;;;69.73;29.77;;;;;;;5.84;100.00;102023.19;5040849;28;20495;-81
2021/11/14 15:14:39;;;;;;;73.87;34.30;;;;;;;5.95;100.00;102030.41;5044458;28;20041;-83
2021/11/14 15:17:19;;;;;;;70.57;30.50;;;;;;;5.83;100.00;102020.53;5062819;28;20433;-82
2021/11/14 15:20:09;;;;;;;57.70;29.10;;;;;;;5.76;100.00;102026.50;5061940;28;20079;-82
2021/11/14 15:22:42;;;;;;;59.97;28.53;;;;;;;5.73;100.00;102026.44;5050071;28;20045;-83
2021/11/14 15:25:41;;;;;;;68.03;29.98;;;;;;;5.87;100.00;102024.97;5061399;28;20036;-83
2021/11/14 15:28:14;;;;;;;63.07;29.53;;;;;;;5.81;100.00;102027.50;5065301;28;20060;-83
2021/11/14 15:30:51;;;;;;;62.30;28.47;;;;;;;5.76;100.00;102042.22;5054720;28;20448;-83